Time;durP1;ratioP1;P1;durP2;ratioP2;P2;SDS_P1;SDS_P2;PMS_P1;PMS_P2;Temp;Humidity;BMP_temperature;BMP_pressure;BME280_temperature;BME280_humidity;BME280_pressure;Samples;Min_cycle;Max_cycle;Signal;HPM_P1;HPM_P2
2021/09/21 00:01:49;;;;;;;20.00;16.98;;;;;;;17.17;53.24;95985.25;5031648;28;20033;-67
2021/09/21 00:04:14;;;;;;;28.42;19.30;;;;;;;17.40;52.94;95984.66;5019326;28;20045;-66
2021/09/21 00:06:40;;;;;;;22.00;16.77;;;;;;;17.57;52.35;95978.34;4996286;28;20654;-66
2021/09/21 00:09:05;;;;;;;15.77;14.18;;;;;;;17.78;52.03;95989.13;5004053;28;20084;-66
2021/09/21 00:11:31;;;;;;;18.55;15.77;;;;;;;17.93;51.69;95979.69;5005686;28;20635;-66
2021/09/21 00:13:57;;;;;;;16.88;14.07;;;;;;;18.10;51.26;95982.19;4990743;28;20027;-67
2021/09/21 00:16:23;;;;;;;15.43;13.50;;;;;;;18.16;51.05;95967.41;5007393;28;20484;-67
2021/09/21 00:18:48;;;;;;;13.82;12.48;;;;;;;18.35;50.50;95976.91;4994208;28;20042;-68
2021/09/21 00:21:14;;;;;;;16.42;14.73;;;;;;;18.44;50.15;95975.69;4988539;28;20555;-67
2021/09/21 00:23:39;;;;;;;14.32;12.93;;;;;;;18.47;49.78;95968.06;4988594;28;20104;-66
2021/09/21 00:26:05;;;;;;;13.70;12.50;;;;;;;18.58;49.72;95979.97;4990803;28;20022;-67
2021/09/21 00:28:30;;;;;;;14.18;12.80;;;;;;;18.63;49.23;95967.09;4988284;28;20042;-67
2021/09/21 00:31:03;;;;;;;13.38;12.10;;;;;;;18.72;48.94;95964.31;4988555;28;20618;-67
2021/09/21 00:33:34;;;;;;;14.85;13.45;;;;;;;18.80;48.67;95968.03;4998972;28;20496;-67
2021/09/21 00:36:00;;;;;;;14.43;13.02;;;;;;;18.80;48.64;95970.72;5008241;28;20041;-67
2021/09/21 00:38:25;;;;;;;15.43;13.93;;;;;;;18.35;48.36;95898.78;5007929;28;20026;-67
2021/09/21 00:40:51;;;;;;;16.38;14.68;;;;;;;18.86;48.41;95966.69;5009672;28;20018;-66
2021/09/21 00:43:23;;;;;;;13.57;12.27;;;;;;;18.81;48.57;95959.59;5007939;28;20034;-67
2021/09/21 00:45:52;;;;;;;14.43;13.02;;;;;;;18.91;48.45;95966.44;5008279;28;20069;-67
2021/09/21 00:48:18;;;;;;;14.43;12.95;;;;;;;18.76;48.35;95967.91;4998815;28;20034;-67
2021/09/21 00:50:43;;;;;;;13.68;12.45;;;;;;;18.90;48.21;95962.19;4999356;28;20445;-66
2021/09/21 00:53:08;;;;;;;15.95;13.57;;;;;;;18.95;47.95;95970.06;4985194;28;20109;-66
2021/09/21 00:55:34;;;;;;;17.23;14.57;;;;;;;18.83;48.15;95962.72;5020593;23;20042;-73
2021/09/21 00:57:59;;;;;;;15.18;13.75;;;;;;;18.91;48.41;95969.94;5003478;28;20407;-73
2021/09/21 01:00:25;;;;;;;14.88;13.43;;;;;;;18.85;48.12;95957.03;5006197;28;20128;-74
2021/09/21 01:02:50;;;;;;;15.38;13.88;;;;;;;18.84;47.92;95958.16;5007777;28;20120;-74
2021/09/21 01:05:16;;;;;;;14.60;13.10;;;;;;;18.88;48.05;95965.22;4992507;28;20072;-74
2021/09/21 01:07:43;;;;;;;14.07;12.80;;;;;;;18.83;47.80;95956.56;4992584;28;20019;-74
2021/09/21 01:10:12;;;;;;;14.57;13.18;;;;;;;18.81;47.86;95964.22;4983549;28;20105;-75
2021/09/21 01:12:38;;;;;;;14.07;12.25;;;;;;;18.82;47.63;95963.84;4981010;28;20050;-73
2021/09/21 01:15:05;;;;;;;13.23;12.05;;;;;;;18.52;47.46;95946.28;4988402;28;20038;-73
2021/09/21 01:17:31;;;;;;;14.30;12.90;;;;;;;18.57;47.73;95960.31;4987197;28;20038;-73
2021/09/21 01:19:56;;;;;;;13.70;12.38;;;;;;;18.25;48.05;95966.53;4977466;28;20528;-74
2021/09/21 01:22:22;;;;;;;15.30;13.90;;;;;;;17.88;48.94;95963.72;4968622;28;20400;-74
2021/09/21 01:24:47;;;;;;;15.88;13.07;;;;;;;16.55;52.32;95965.91;4968644;28;20062;-74
2021/09/21 01:27:13;;;;;;;14.00;12.35;;;;;;;16.59;52.44;95968.75;4969128;28;20039;-73
2021/09/21 01:29:38;;;;;;;15.85;12.88;;;;;;;17.37;50.45;95965.69;4972639;28;20077;-73
2021/09/21 01:32:04;;;;;;;12.82;11.63;;;;;;;17.80;49.51;95968.06;4990278;28;20027;-73
2021/09/21 01:34:32;;;;;;;13.00;11.80;;;;;;;17.97;49.13;95971.75;4979927;28;20031;-73
2021/09/21 01:36:57;;;;;;;12.73;11.43;;;;;;;17.99;48.89;95974.88;4968574;28;20031;-73
2021/09/21 01:39:24;;;;;;;12.70;11.52;;;;;;;17.70;49.69;95979.19;4983142;28;20101;-73
2021/09/21 01:41:50;;;;;;;12.30;11.23;;;;;;;18.07;48.67;95985.56;4971970;28;20130;-74
2021/09/21 01:44:16;;;;;;;14.40;13.10;;;;;;;17.95;48.25;95974.75;4972333;28;20026;-73
2021/09/21 01:46:44;;;;;;;13.88;12.43;;;;;;;17.32;49.90;95977.41;4974586;28;20022;-73
2021/09/21 01:49:12;;;;;;;14.43;13.05;;;;;;;17.95;48.88;95990.09;4971719;28;20042;-73
2021/09/21 01:51:40;;;;;;;14.15;12.85;;;;;;;18.15;48.80;95994.69;4972315;28;20034;-73
2021/09/21 01:59:25;;;;;;;13.27;12.07;;;;;;;18.43;48.24;95997.59;4974136;28;20093;-72
2021/09/21 02:01:50;;;;;;;13.68;12.38;;;;;;;18.56;47.95;96004.56;4993766;28;20049;-74
2021/09/21 02:04:16;;;;;;;12.63;11.43;;;;;;;18.37;47.78;95994.28;4986201;28;20068;-74
2021/09/21 02:06:42;;;;;;;13.48;12.10;;;;;;;17.90;49.50;95999.16;4972229;28;20054;-77
2021/09/21 02:09:11;;;;;;;14.45;12.88;;;;;;;18.02;49.03;95991.16;4979550;28;20070;-73
2021/09/21 02:11:38;;;;;;;13.48;12.10;;;;;;;18.29;48.45;95994.41;4972296;28;20070;-73
2021/09/21 02:14:08;;;;;;;14.35;12.98;;;;;;;18.43;47.82;95994.88;4973736;28;20037;-73
2021/09/21 02:16:34;;;;;;;13.13;11.82;;;;;;;18.59;47.88;95993.13;4953057;28;20043;-73
2021/09/21 02:19:00;;;;;;;13.13;11.93;;;;;;;18.74;47.39;95994.41;4951502;28;20035;-73
2021/09/21 02:21:26;;;;;;;12.77;11.30;;;;;;;18.59;47.19;96003.13;4973337;28;20043;-73
2021/09/21 02:23:53;;;;;;;15.40;13.13;;;;;;;17.13;50.71;96007.41;4976690;28;20113;-73
2021/09/21 02:26:18;;;;;;;13.77;12.48;;;;;;;17.02;51.54;95997.34;4972025;28;20117;-73
2021/09/21 02:28:44;;;;;;;13.68;12.40;;;;;;;17.89;49.32;96000.28;4973543;28;20134;-72
2021/09/21 02:31:10;;;;;;;12.27;11.18;;;;;;;18.29;48.91;96002.47;4971778;28;20042;-73
2021/09/21 02:33:35;;;;;;;13.60;11.70;;;;;;;18.51;48.82;96002.06;4971649;28;20552;-74
2021/09/21 02:36:02;;;;;;;12.23;11.13;;;;;;;17.74;49.20;96008.97;4978405;28;20085;-73
2021/09/21 02:38:27;;;;;;;13.65;12.27;;;;;;;17.34;50.93;96014.72;4971931;28;20440;-72
2021/09/21 02:40:52;;;;;;;12.95;11.80;;;;;;;17.44;50.51;96003.59;4973258;28;20030;-73
2021/09/21 02:43:18;;;;;;;12.98;11.75;;;;;;;18.02;49.54;96004.63;4954123;28;20043;-73
2021/09/21 02:45:43;;;;;;;13.05;11.85;;;;;;;17.75;49.87;96007.84;4964509;28;20074;-73
2021/09/21 02:48:09;;;;;;;13.95;12.65;;;;;;;17.86;50.08;96017.91;4970576;28;20023;-73
2021/09/21 02:50:34;;;;;;;12.32;11.00;;;;;;;18.19;49.40;96009.84;4977939;28;20054;-72
2021/09/21 02:53:00;;;;;;;12.57;11.38;;;;;;;18.36;49.04;96022.34;4980754;28;20029;-73
2021/09/21 02:55:26;;;;;;;12.90;11.80;;;;;;;17.73;50.26;96012.78;4971447;28;20035;-73
2021/09/21 02:57:51;;;;;;;13.88;12.48;;;;;;;17.22;51.90;96014.66;4971356;28;20043;-74
2021/09/21 03:00:22;;;;;;;14.00;12.13;;;;;;;17.14;52.27;96022.41;4971373;28;20077;-75
2021/09/21 03:02:48;;;;;;;13.77;12.43;;;;;;;17.32;51.24;96027.72;4971401;28;20039;-75
2021/09/21 03:05:18;;;;;;;13.75;12.45;;;;;;;17.82;50.77;96035.81;4978713;28;20034;-74
2021/09/21 03:07:52;;;;;;;12.95;11.85;;;;;;;18.14;50.07;96026.19;4981113;28;20015;-74
2021/09/21 03:18:04;;;;;;;14.52;13.00;;;;;;;16.95;51.97;96040.88;4971372;28;20142;-74
2021/09/21 03:20:31;;;;;;;14.25;12.95;;;;;;;17.78;50.50;96044.88;4977936;28;20117;-74
2021/09/21 03:22:56;;;;;;;18.00;13.18;;;;;;;18.04;49.88;96039.28;4980596;28;20019;-74
2021/09/21 03:25:22;;;;;;;14.65;13.43;;;;;;;18.35;49.34;96030.78;4970868;28;20085;-74
2021/09/21 03:27:47;;;;;;;15.38;13.77;;;;;;;18.62;48.95;96046.34;4969840;28;20155;-74
2021/09/21 03:30:14;;;;;;;14.45;13.05;;;;;;;18.43;48.22;96038.00;4969142;28;20058;-74
2021/09/21 03:32:41;;;;;;;13.93;12.63;;;;;;;18.68;47.87;96038.84;4970516;28;20445;-74
2021/09/21 03:35:08;;;;;;;14.88;13.55;;;;;;;18.85;47.73;96049.47;4972449;28;20106;-74
2021/09/21 03:37:34;;;;;;;14.50;13.02;;;;;;;18.95;47.61;96038.25;4981869;28;20073;-74
2021/09/21 03:40:00;;;;;;;15.18;13.88;;;;;;;19.04;47.08;96046.22;4974070;28;20034;-74
2021/09/21 03:42:25;;;;;;;13.63;12.20;;;;;;;19.00;46.78;96025.66;4970790;28;20066;-74
2021/09/21 03:44:51;;;;;;;16.33;12.60;;;;;;;19.18;46.87;96052.06;4970446;28;20496;-74
2021/09/21 03:47:16;;;;;;;14.13;12.73;;;;;;;19.19;46.75;96031.28;4970731;28;20527;-74
2021/09/21 03:49:42;;;;;;;14.02;12.68;;;;;;;19.27;46.63;96043.88;4971881;28;20664;-75
2021/09/21 03:52:07;;;;;;;15.00;13.63;;;;;;;19.23;46.20;96032.19;4978213;28;20455;-74
2021/09/21 03:54:33;;;;;;;13.52;12.32;;;;;;;19.30;46.07;96047.81;4970078;28;20063;-74
2021/09/21 03:56:58;;;;;;;14.27;12.95;;;;;;;19.31;45.79;96054.78;4970295;28;20692;-74
2021/09/21 03:59:25;;;;;;;14.15;12.85;;;;;;;19.29;45.97;96035.44;4969947;28;20078;-74
2021/09/21 04:01:51;;;;;;;14.80;13.07;;;;;;;19.23;45.97;96043.75;4972344;28;20033;-74
2021/09/21 04:04:16;;;;;;;14.27;12.90;;;;;;;19.06;46.15;96043.97;4968801;28;20389;-74
2021/09/21 04:06:42;;;;;;;14.30;12.80;;;;;;;19.15;46.14;96030.41;4963470;28;20031;-74
2021/09/21 04:09:07;;;;;;;13.93;12.52;;;;;;;19.28;46.19;96040.03;4976033;28;20038;-74
2021/09/21 04:11:33;;;;;;;14.73;13.32;;;;;;;19.32;46.38;96040.16;4970132;28;20042;-74
2021/09/21 04:13:58;;;;;;;13.60;12.40;;;;;;;19.29;46.27;96030.81;4986836;28;20023;-74
2021/09/21 04:16:23;;;;;;;14.00;12.43;;;;;;;19.41;46.37;96046.25;4970031;28;20057;-74
2021/09/21 04:18:49;;;;;;;14.20;12.88;;;;;;;19.47;46.16;96052.97;4969512;28;20039;-74
2021/09/21 04:21:14;;;;;;;12.68;11.38;;;;;;;19.47;46.40;96058.38;4976874;28;20061;-74
2021/09/21 04:23:40;;;;;;;14.55;12.55;;;;;;;19.47;46.40;96048.34;4977394;28;20165;-74
2021/09/21 04:26:09;;;;;;;13.48;12.15;;;;;;;19.52;46.22;96043.88;4971338;28;20027;-75
2021/09/21 04:28:35;;;;;;;13.73;11.82;;;;;;;19.54;46.54;96053.19;4969992;28;20377;-74
2021/09/21 04:31:08;;;;;;;12.65;11.35;;;;;;;19.47;46.81;96034.09;4969672;28;20125;-73
2021/09/21 04:33:36;;;;;;;11.32;10.40;;;;;;;19.45;47.08;96050.63;4969378;28;20477;-74
2021/09/21 04:36:05;;;;;;;11.88;10.70;;;;;;;19.38;47.25;96049.59;4991398;28;20042;-73
2021/09/21 04:38:30;;;;;;;10.77;9.55;;;;;;;19.43;46.79;96065.56;4961353;28;20041;-74
2021/09/21 04:40:56;;;;;;;11.07;10.02;;;;;;;19.38;47.00;96071.19;4971053;28;20022;-73
2021/09/21 04:43:21;;;;;;;10.93;9.93;;;;;;;19.40;46.82;96075.13;4969279;28;20039;-74
2021/09/21 04:45:47;;;;;;;10.80;9.70;;;;;;;19.38;46.84;96068.47;4969591;28;20042;-74
2021/09/21 04:48:12;;;;;;;11.57;10.40;;;;;;;19.36;46.72;96063.44;4969544;28;20039;-75
2021/09/21 04:50:37;;;;;;;12.70;10.77;;;;;;;19.40;46.74;96069.72;4972929;28;20042;-74
2021/09/21 04:53:03;;;;;;;11.52;10.52;;;;;;;19.38;46.88;96076.56;4981979;28;20121;-74
2021/09/21 04:55:28;;;;;;;14.32;11.25;;;;;;;19.24;46.77;96071.50;4969094;28;20047;-74
2021/09/21 04:57:54;;;;;;;11.00;10.10;;;;;;;19.33;46.62;96082.19;4984130;28;20031;-74
2021/09/21 05:00:19;;;;;;;11.27;10.27;;;;;;;19.40;46.59;96101.31;4968928;28;20071;-74
2021/09/21 05:02:44;;;;;;;10.38;9.48;;;;;;;19.32;46.54;96089.50;4968413;28;20034;-74
2021/09/21 05:05:10;;;;;;;11.35;9.95;;;;;;;19.31;46.23;96084.44;4969130;28;20038;-74
2021/09/21 05:07:36;;;;;;;11.52;10.40;;;;;;;19.32;46.25;96094.91;4982139;28;20015;-72
2021/09/21 05:10:02;;;;;;;11.00;10.10;;;;;;;19.31;46.31;96092.53;4980724;28;20397;-74
2021/09/21 05:12:27;;;;;;;13.38;10.45;;;;;;;19.29;46.10;96106.34;4969627;28;20045;-76
2021/09/21 05:14:53;;;;;;;11.93;9.52;;;;;;;19.32;45.98;96110.31;4969310;28;20723;-71
2021/09/21 05:17:19;;;;;;;12.32;11.18;;;;;;;19.20;46.21;96098.38;4969425;28;20081;-73
2021/09/21 05:19:45;;;;;;;11.48;10.07;;;;;;;19.42;46.10;96112.56;4970999;28;20027;-74
2021/09/21 05:22:10;;;;;;;12.82;11.57;;;;;;;19.26;46.05;96107.03;4975877;28;20041;-70
2021/09/21 05:24:35;;;;;;;11.27;10.05;;;;;;;19.33;46.26;96109.16;4970354;28;20027;-82
2021/09/21 05:27:01;;;;;;;11.50;10.50;;;;;;;19.41;46.19;96116.38;4970893;28;20392;-84
2021/09/21 05:29:26;;;;;;;12.75;11.55;;;;;;;19.42;45.81;96120.66;4969656;28;20109;-80
2021/09/21 05:31:52;;;;;;;10.93;9.93;;;;;;;19.43;45.78;96123.00;4972773;28;20023;-84
2021/09/21 05:34:18;;;;;;;12.07;9.77;;;;;;;19.48;45.49;96130.88;4969924;28;20038;-79
2021/09/21 05:36:43;;;;;;;11.70;10.55;;;;;;;19.54;45.55;96139.53;4976866;28;20051;-72
2021/09/21 05:39:14;;;;;;;10.70;9.70;;;;;;;19.54;45.53;96139.53;4991306;28;20493;-75
2021/09/21 05:41:39;;;;;;;11.05;9.98;;;;;;;19.74;45.25;96143.28;4968900;28;20046;-69
2021/09/21 05:44:05;;;;;;;11.63;10.52;;;;;;;19.55;45.35;96151.13;4967741;28;20054;-72
2021/09/21 05:46:32;;;;;;;12.02;10.32;;;;;;;18.86;45.80;96160.75;4967761;28;20031;-69
2021/09/21 05:48:59;;;;;;;11.60;10.45;;;;;;;18.69;46.50;96164.41;4967691;28;20041;-73
2021/09/21 05:51:27;;;;;;;10.85;9.65;;;;;;;19.02;46.56;96156.31;4958597;28;20090;-69
2021/09/21 05:53:53;;;;;;;10.65;9.65;;;;;;;18.52;47.44;96159.13;4967896;28;20043;-73
2021/09/21 05:56:19;;;;;;;12.20;10.73;;;;;;;18.62;47.27;96159.50;4967386;28;20812;-72
2021/09/21 05:58:45;;;;;;;11.15;10.15;;;;;;;18.52;47.47;96151.81;4950781;28;20062;-68
2021/09/21 06:01:10;;;;;;;12.20;11.02;;;;;;;18.88;46.79;96166.59;4966094;28;20125;-76
2021/09/21 06:03:36;;;;;;;12.25;11.15;;;;;;;18.96;46.44;96171.13;4956835;28;20046;-69
2021/09/21 06:06:01;;;;;;;11.45;10.45;;;;;;;19.01;46.50;96187.09;4956025;28;20532;-68
2021/09/21 06:08:27;;;;;;;12.27;11.15;;;;;;;19.28;46.38;96195.72;4962763;28;20030;-78
2021/09/21 06:10:53;;;;;;;12.88;11.07;;;;;;;19.25;46.11;96199.88;4982930;28;20469;-77
2021/09/21 06:13:18;;;;;;;12.20;11.00;;;;;;;19.11;46.51;96202.88;4968656;28;20046;-70
2021/09/21 06:15:45;;;;;;;12.20;11.05;;;;;;;18.96;46.95;96203.47;4968518;28;20090;-71
2021/09/21 06:18:10;;;;;;;13.43;11.07;;;;;;;18.43;47.84;96199.63;4968384;28;20378;-71
2021/09/21 06:20:39;;;;;;;13.07;11.63;;;;;;;17.15;51.40;96206.03;4967724;28;20046;-75
2021/09/21 06:23:05;;;;;;;14.20;11.27;;;;;;;18.38;48.89;96208.69;4969737;28;20023;-74
2021/09/21 06:25:30;;;;;;;12.27;11.25;;;;;;;18.81;47.62;96212.97;4967255;28;20524;-74
2021/09/21 06:27:56;;;;;;;12.88;11.45;;;;;;;18.90;46.98;96207.50;4986296;28;20440;-73
2021/09/21 06:30:21;;;;;;;14.35;11.10;;;;;;;19.11;46.64;96226.34;4989861;28;20058;-72
2021/09/21 06:32:47;;;;;;;12.10;11.00;;;;;;;18.91;47.27;96215.25;4991373;28;20034;-67
2021/09/21 06:35:13;;;;;;;13.85;12.55;;;;;;;18.89;47.87;96227.50;4988081;28;20137;-66
2021/09/21 06:37:38;;;;;;;13.93;12.20;;;;;;;19.09;47.89;96228.56;4973323;28;20022;-66
2021/09/21 06:40:05;;;;;;;12.48;11.27;;;;;;;19.51;47.04;96225.78;4978175;28;20034;-66
2021/09/21 06:42:33;;;;;;;14.65;12.93;;;;;;;19.45;46.58;96222.53;4971260;28;20393;-66
2021/09/21 06:44:58;;;;;;;14.07;12.60;;;;;;;19.65;46.18;96221.66;4971337;28;20030;-67
2021/09/21 06:47:23;;;;;;;13.00;11.73;;;;;;;19.95;46.07;96224.94;4969420;28;20025;-67
2021/09/21 06:49:49;;;;;;;15.93;14.27;;;;;;;20.15;45.42;96225.19;4953583;28;20458;-67
2021/09/21 06:52:14;;;;;;;12.70;11.43;;;;;;;20.23;45.17;96229.69;4959092;28;20047;-69
2021/09/21 06:54:40;;;;;;;14.27;12.65;;;;;;;19.76;45.70;96232.84;4963733;28;20039;-70
2021/09/21 06:57:05;;;;;;;13.88;12.48;;;;;;;19.86;45.70;96236.97;4994910;23;20038;-68
2021/09/21 06:59:31;;;;;;;14.20;12.57;;;;;;;20.20;45.02;96216.84;4985150;28;20031;-71
2021/09/21 07:01:56;;;;;;;12.95;11.80;;;;;;;20.58;44.48;96227.31;4971743;28;20045;-69
2021/09/21 07:04:22;;;;;;;13.38;12.02;;;;;;;20.19;44.81;96240.38;4970838;28;20458;-68
2021/09/21 07:06:47;;;;;;;13.48;11.77;;;;;;;20.79;44.28;96239.88;4984401;28;20604;-69
2021/09/21 07:09:12;;;;;;;13.98;12.23;;;;;;;21.08;43.76;96234.09;4988438;28;20039;-71
2021/09/21 07:11:38;;;;;;;14.48;11.23;;;;;;;21.31;43.02;96223.56;4990509;28;20060;-71
2021/09/21 07:14:03;;;;;;;14.60;12.75;;;;;;;21.56;42.54;96229.63;4992171;28;20030;-71
2021/09/21 07:16:29;;;;;;;14.63;12.95;;;;;;;21.79;42.06;96233.28;5009735;28;20045;-70
2021/09/21 07:18:54;;;;;;;13.10;11.70;;;;;;;21.97;42.15;96233.75;5009780;28;20094;-70
2021/09/21 07:21:20;;;;;;;10.95;9.88;;;;;;;22.10;41.56;96231.69;4990376;28;20129;-71
2021/09/21 07:23:45;;;;;;;11.30;10.20;;;;;;;22.20;41.46;96220.34;4970580;28;20459;-71
2021/09/21 07:26:12;;;;;;;11.65;10.52;;;;;;;22.47;41.06;96234.94;4971582;28;20814;-72
2021/09/21 07:28:38;;;;;;;11.35;10.25;;;;;;;22.63;40.43;96234.88;5011399;28;20166;-70
2021/09/21 07:31:04;;;;;;;11.00;9.90;;;;;;;22.66;39.90;96230.66;5008242;28;20037;-69
2021/09/21 07:33:29;;;;;;;10.38;9.52;;;;;;;22.71;39.79;96233.88;5009288;28;20042;-70
2021/09/21 07:35:55;;;;;;;11.15;9.23;;;;;;;22.82;39.77;96244.94;5003380;28;20030;-71
2021/09/21 07:38:20;;;;;;;10.05;9.05;;;;;;;22.86;40.20;96253.16;4989713;28;20033;-71
2021/09/21 07:40:47;;;;;;;13.57;9.60;;;;;;;22.93;39.64;96248.72;4991026;28;20137;-71
2021/09/21 07:43:12;;;;;;;11.70;10.63;;;;;;;23.04;39.63;96249.72;4989578;28;20042;-71
2021/09/21 07:45:38;;;;;;;10.60;9.40;;;;;;;22.84;39.77;96248.09;4989943;28;20092;-71
2021/09/21 07:48:04;;;;;;;12.80;10.05;;;;;;;22.90;39.75;96252.13;4989756;28;20443;-72
2021/09/21 07:50:30;;;;;;;10.82;9.82;;;;;;;23.07;39.45;96256.34;4989009;28;20584;-69
2021/09/21 07:52:56;;;;;;;11.95;10.45;;;;;;;23.00;39.38;96261.63;4991180;28;20096;-70
2021/09/21 07:55:22;;;;;;;12.02;9.75;;;;;;;23.02;39.40;96265.56;4997626;28;20550;-71
2021/09/21 07:57:49;;;;;;;10.40;9.40;;;;;;;23.11;39.35;96273.50;5003414;28;20764;-71
2021/09/21 08:00:17;;;;;;;10.68;9.77;;;;;;;23.06;38.99;96268.34;5008611;28;20442;-71
2021/09/21 08:02:43;;;;;;;12.02;10.23;;;;;;;23.13;39.00;96282.03;5009021;28;20030;-71
2021/09/21 08:05:09;;;;;;;12.63;10.00;;;;;;;23.18;39.42;96270.91;5009094;28;20476;-70
2021/09/21 08:07:35;;;;;;;11.30;10.30;;;;;;;23.29;38.77;96282.78;4992165;28;20033;-71
2021/09/21 08:10:01;;;;;;;11.27;10.23;;;;;;;23.25;38.56;96284.63;4996139;28;20061;-72
2021/09/21 08:12:28;;;;;;;13.75;11.13;;;;;;;22.57;38.95;96299.44;4999195;28;20116;-72
2021/09/21 08:14:55;;;;;;;12.20;11.13;;;;;;;21.74;40.66;96301.25;5008597;28;20456;-73
2021/09/21 08:17:22;;;;;;;10.82;9.88;;;;;;;22.31;40.16;96310.81;5008712;28;20455;-71
2021/09/21 08:19:49;;;;;;;13.15;11.18;;;;;;;22.64;39.87;96308.88;5010026;28;20036;-72
2021/09/21 08:22:15;;;;;;;11.85;10.63;;;;;;;22.83;39.53;96306.22;4993352;28;20133;-72
2021/09/21 08:24:40;;;;;;;12.52;11.15;;;;;;;20.74;43.20;96322.78;4992100;28;20101;-71
2021/09/21 08:27:06;;;;;;;11.77;10.77;;;;;;;21.00;42.66;96310.78;5008649;28;20038;-71
2021/09/21 08:29:31;;;;;;;12.52;11.10;;;;;;;21.75;41.27;96302.84;5008078;28;20419;-71
2021/09/21 08:31:56;;;;;;;12.68;11.50;;;;;;;22.14;40.85;96308.47;5009310;28;20026;-72
2021/09/21 08:34:23;;;;;;;11.55;10.50;;;;;;;22.46;40.70;96309.25;5008391;28;20046;-73
2021/09/21 08:36:50;;;;;;;12.32;11.15;;;;;;;22.70;40.21;96293.91;4997160;28;20668;-74
2021/09/21 08:39:16;;;;;;;10.95;9.98;;;;;;;23.08;39.58;96320.31;4989803;28;20112;-72
2021/09/21 08:41:42;;;;;;;11.30;10.30;;;;;;;23.37;39.23;96313.56;4993840;28;20046;-72
2021/09/21 08:44:08;;;;;;;10.85;9.80;;;;;;;23.66;38.60;96320.38;4990272;28;20029;-71
2021/09/21 08:46:34;;;;;;;12.35;9.45;;;;;;;23.74;38.27;96324.75;4989325;28;20037;-73
2021/09/21 08:48:59;;;;;;;12.40;11.18;;;;;;;23.95;38.12;96315.44;4986482;28;20401;-72
2021/09/21 08:51:24;;;;;;;12.75;11.07;;;;;;;24.36;36.97;96320.06;4988376;28;20511;-73
2021/09/21 08:53:50;;;;;;;11.27;10.27;;;;;;;24.48;36.95;96316.34;4988088;28;20386;-72
2021/09/21 08:56:16;;;;;;;10.82;9.82;;;;;;;25.15;35.53;96313.84;4998068;28;20129;-72
2021/09/21 08:58:41;;;;;;;11.13;10.07;;;;;;;25.49;35.16;96329.41;5009571;28;20030;-72
2021/09/21 09:01:15;;;;;;;12.68;11.55;;;;;;;25.21;35.20;96338.00;5006815;28;20539;-71
2021/09/21 09:03:52;;;;;;;11.38;9.90;;;;;;;25.41;34.74;96334.78;5007860;28;20042;-72
2021/09/21 09:06:17;;;;;;;11.55;10.43;;;;;;;25.41;34.42;96323.88;5002137;28;20035;-73
2021/09/21 09:08:43;;;;;;;11.88;10.27;;;;;;;25.53;34.39;96311.16;4987926;28;20038;-73
2021/09/21 09:11:29;;;;;;;12.77;11.38;;;;;;;25.82;33.34;96325.91;4996869;28;20034;-72
2021/09/21 09:13:56;;;;;;;11.73;10.68;;;;;;;25.85;33.47;96323.22;5009088;28;20037;-72
2021/09/21 09:16:27;;;;;;;11.50;10.32;;;;;;;26.15;33.58;96327.78;5008075;28;20034;-72
2021/09/21 09:19:07;;;;;;;13.50;10.23;;;;;;;26.18;33.49;96321.59;5007260;28;20049;-73
2021/09/21 09:21:36;;;;;;;11.27;10.18;;;;;;;26.18;33.58;96335.22;5000125;28;20374;-72
2021/09/21 09:24:03;;;;;;;11.23;10.23;;;;;;;26.32;33.19;96332.63;4987924;28;20489;-71
2021/09/21 09:26:33;;;;;;;12.20;10.98;;;;;;;26.17;33.39;96328.97;4999661;28;20073;-73
2021/09/21 09:28:58;;;;;;;12.20;10.80;;;;;;;26.12;32.95;96328.53;5008215;28;20080;-73
2021/09/21 09:31:33;;;;;;;12.38;11.27;;;;;;;26.07;32.76;96337.84;5008109;28;20066;-73
2021/09/21 09:34:07;;;;;;;13.60;10.77;;;;;;;26.09;32.71;96345.66;5007704;28;20050;-73
2021/09/21 09:36:52;;;;;;;12.52;11.32;;;;;;;26.16;32.37;96345.72;5001349;28;20051;-70
2021/09/21 09:39:21;;;;;;;12.60;11.35;;;;;;;26.14;32.12;96345.31;4989708;28;20129;-71
2021/09/21 09:41:49;;;;;;;13.05;11.43;;;;;;;26.10;32.01;96341.75;4999575;28;20044;-71
2021/09/21 09:44:21;;;;;;;13.15;11.75;;;;;;;26.08;31.87;96342.13;5007626;28;20049;-71
2021/09/21 09:46:48;;;;;;;13.25;12.25;;;;;;;25.88;31.77;96327.91;5008559;28;20037;-70
2021/09/21 09:49:18;;;;;;;13.10;11.75;;;;;;;26.01;30.98;96344.81;5007323;28;20057;-70
2021/09/21 09:51:47;;;;;;;13.55;11.98;;;;;;;25.87;30.77;96358.28;4999927;28;20031;-72
2021/09/21 09:54:13;;;;;;;12.55;11.35;;;;;;;26.17;30.45;96361.72;4988622;28;20054;-71
2021/09/21 09:56:40;;;;;;;13.05;11.75;;;;;;;26.40;30.46;96352.53;4999413;28;20103;-70
2021/09/21 09:59:06;;;;;;;12.10;10.90;;;;;;;26.57;29.93;96349.22;5008718;28;20487;-71
2021/09/21 10:01:31;;;;;;;12.07;10.90;;;;;;;26.85;29.07;96354.09;5008705;28;20080;-71
2021/09/21 10:03:57;;;;;;;12.48;11.38;;;;;;;26.96;28.92;96354.16;5010983;28;20037;-71
2021/09/21 10:06:23;;;;;;;13.23;10.55;;;;;;;27.06;28.27;96345.25;5006945;28;20045;-70
2021/09/21 10:08:51;;;;;;;11.90;10.70;;;;;;;27.16;28.63;96341.03;4990921;28;20042;-70
2021/09/21 10:11:17;;;;;;;11.75;10.50;;;;;;;27.10;27.80;96348.03;5001343;28;20034;-70
2021/09/21 10:13:43;;;;;;;11.95;10.85;;;;;;;26.71;28.18;96356.72;5012712;28;20022;-70
2021/09/21 10:16:09;;;;;;;13.10;11.80;;;;;;;26.62;28.40;96359.00;5011133;28;20534;-70
2021/09/21 10:18:39;;;;;;;12.30;11.38;;;;;;;26.85;28.60;96354.09;5010681;28;20381;-70
2021/09/21 10:21:05;;;;;;;13.23;12.05;;;;;;;26.92;28.46;96347.88;5009823;28;20427;-70
2021/09/21 10:23:32;;;;;;;12.80;11.60;;;;;;;26.73;28.91;96348.94;4990792;28;20097;-68
2021/09/21 10:26:11;;;;;;;12.73;11.73;;;;;;;27.12;28.52;96343.75;5000829;28;20061;-68
2021/09/21 10:28:40;;;;;;;11.02;10.13;;;;;;;27.52;28.55;96339.25;4970702;28;20046;-68
2021/09/21 10:31:12;;;;;;;12.60;11.43;;;;;;;27.62;27.51;96340.47;4971785;28;20046;-66
2021/09/21 10:33:38;;;;;;;12.20;11.27;;;;;;;27.73;27.62;96353.00;4971523;28;20484;-68
2021/09/21 10:36:15;;;;;;;12.10;10.93;;;;;;;28.02;27.59;96341.38;4971227;28;20053;-67
2021/09/21 10:38:53;;;;;;;12.30;11.30;;;;;;;28.01;26.67;96358.97;4964167;28;20043;-68
2021/09/21 10:41:18;;;;;;;11.63;10.52;;;;;;;28.18;26.90;96355.47;4972823;28;20077;-68
2021/09/21 10:43:45;;;;;;;11.38;10.57;;;;;;;28.40;27.03;96354.34;4992854;28;20022;-68
2021/09/21 10:46:15;;;;;;;12.85;11.93;;;;;;;25.21;29.22;96338.78;4991620;28;20049;-71
2021/09/21 10:48:45;;;;;;;13.90;11.90;;;;;;;24.44;31.15;96360.97;4991435;28;20035;-72
2021/09/21 10:51:12;;;;;;;11.65;10.75;;;;;;;26.09;29.49;96345.66;4988857;28;20062;-69
2021/09/21 10:53:38;;;;;;;12.93;11.80;;;;;;;26.27;28.91;96354.00;4974976;28;20440;-69
2021/09/21 10:56:16;;;;;;;12.80;11.38;;;;;;;26.60;28.23;96353.13;4992915;28;20026;-68
2021/09/21 10:58:55;;;;;;;11.52;10.60;;;;;;;26.86;28.81;96363.06;4984423;28;20511;-69
2021/09/21 11:01:21;;;;;;;12.43;11.23;;;;;;;26.57;28.12;96351.16;4991154;28;20041;-68
2021/09/21 11:03:47;;;;;;;13.05;12.02;;;;;;;26.56;28.62;96355.03;4990532;28;20034;-68
2021/09/21 11:06:14;;;;;;;13.82;12.63;;;;;;;26.36;27.93;96351.72;4990682;28;20066;-67
2021/09/21 11:08:41;;;;;;;13.38;12.23;;;;;;;25.73;29.11;96352.63;4988684;28;20035;-68
2021/09/21 11:11:07;;;;;;;12.75;11.65;;;;;;;25.73;29.22;96353.41;4999592;28;20084;-67
2021/09/21 11:13:35;;;;;;;11.75;10.75;;;;;;;26.04;28.73;96356.88;4997847;28;20046;-66
2021/09/21 11:16:03;;;;;;;12.38;11.27;;;;;;;25.50;29.44;96348.13;4990581;28;20038;-66
2021/09/21 11:18:28;;;;;;;11.98;10.73;;;;;;;25.83;29.71;96344.59;4990678;28;20030;-67
2021/09/21 11:20:55;;;;;;;14.38;11.43;;;;;;;23.81;32.26;96373.03;4990555;28;20592;-68
2021/09/21 11:23:24;;;;;;;13.23;11.75;;;;;;;24.91;30.57;96360.53;4989977;28;20038;-67
2021/09/21 11:25:50;;;;;;;12.82;11.73;;;;;;;24.67;31.09;96360.91;4998453;28;20032;-67
2021/09/21 11:28:17;;;;;;;13.35;12.27;;;;;;;25.24;29.96;96346.25;5001725;28;20050;-68